Pleasant Hill, Illinois
Current Conditions -  °F | °C
As of 3:35 AM on Friday 31 Oct 2014 (Local Time) from KPPQ Reporting Station
Overcast Overcast  
Wind Chill:   Ceiling: 7500
Heat Index:   Visibility: 10mi
Dew Point:   Wind: 9mph
Humidity: 84%   Direction: 310°NW
Pressure: 30.14"   Gusts: NA
Location:  39.44°N, 90.87°W
Report Text: KPPQ 310835Z AUTO 31008KT 10SM SCT037 SCT060 OVC075 08/06 A3014 RMK AO2 T00820056
Loading
Personal Weather Stations






























Interactive Weather Map
Tropical Storm Tracking
New forecast layout! Learn more

10-Day Weather Forecast

Advertisements
Track Severe Weather on mobile